createdAt,value
2022-08-02T00:03:12.839Z,48.83
2022-08-02T00:08:18.188Z,48.30
2022-08-02T00:13:23.730Z,48.77
2022-08-02T00:18:29.387Z,48.58
2022-08-02T00:23:34.618Z,49.20
2022-08-02T00:28:41.557Z,49.00
2022-08-02T00:34:27.024Z,48.67
2022-08-02T00:38:54.852Z,48.83
2022-08-02T00:44:00.110Z,48.27
2022-08-02T00:49:05.805Z,49.20
2022-08-02T00:54:14.757Z,49.38
2022-08-02T00:59:20.550Z,50.07
2022-08-02T01:04:31.269Z,50.15
2022-08-02T01:09:34.161Z,50.57
2022-08-02T01:14:41.082Z,50.27
2022-08-02T01:20:01.297Z,49.13
2022-08-02T01:25:27.353Z,49.08
2022-08-02T01:30:35.489Z,49.00
2022-08-02T01:35:50.598Z,48.80
2022-08-02T01:40:53.467Z,48.73
2022-08-02T01:46:01.017Z,48.67
2022-08-02T01:56:13.496Z,48.25
2022-08-02T02:01:21.196Z,48.33
2022-08-02T02:06:28.191Z,48.73
2022-08-02T02:12:11.560Z,48.10
2022-08-02T02:16:44.259Z,47.53
2022-08-02T02:21:49.198Z,48.27
2022-08-02T02:26:54.401Z,48.13
2022-08-02T02:32:02.509Z,48.57
2022-08-02T02:37:11.010Z,48.37
2022-08-02T02:42:19.735Z,47.55
2022-08-02T02:47:40.571Z,47.97
2022-08-02T02:52:33.449Z,48.17
2022-08-02T02:57:40.229Z,48.33
2022-08-02T03:02:46.709Z,48.43
2022-08-02T03:07:52.302Z,48.13
2022-08-02T03:12:58.649Z,48.50
2022-08-02T03:18:03.867Z,47.90
2022-08-02T03:23:08.826Z,48.63
2022-08-02T03:28:14.090Z,47.90
2022-08-02T03:33:21.327Z,47.93
2022-08-02T03:38:29.202Z,47.33
2022-08-02T03:43:37.283Z,47.40
2022-08-02T03:48:43.364Z,48.33
2022-08-02T03:53:50.727Z,48.20
2022-08-02T03:59:12.760Z,47.93
2022-08-02T04:04:18.351Z,48.30
2022-08-02T04:09:24.424Z,48.28
2022-08-02T04:14:30.365Z,48.13
2022-08-02T04:19:45.534Z,48.87
2022-08-02T04:24:53.529Z,48.47
2022-08-02T04:30:01.420Z,48.80
2022-08-02T04:35:22.968Z,49.35
2022-08-02T04:40:15.691Z,49.33
2022-08-02T04:45:22.909Z,49.65
2022-08-02T04:50:28.804Z,50.70
2022-08-02T04:55:34.974Z,49.57
2022-08-02T05:00:40.966Z,50.50
2022-08-02T05:05:46.125Z,50.87
2022-08-02T05:10:51.887Z,50.43
2022-08-02T05:15:58.839Z,49.97
2022-08-02T05:21:05.399Z,50.00
2022-08-02T05:26:11.505Z,50.73
2022-08-02T05:31:16.666Z,49.97
2022-08-02T05:36:22.732Z,50.13
2022-08-02T05:41:27.753Z,51.73
2022-08-02T05:46:33.809Z,50.90
2022-08-02T05:56:53.798Z,51.30
2022-08-02T06:02:02.986Z,51.00
2022-08-02T06:07:10.727Z,51.33
2022-08-02T06:12:18.730Z,51.00
2022-08-02T06:17:24.651Z,50.67
2022-08-02T06:22:36.022Z,50.98
2022-08-02T06:27:39.817Z,51.83
2022-08-02T06:32:46.196Z,51.73
2022-08-02T06:37:59.005Z,51.97
2022-08-02T06:43:16.216Z,52.20
2022-08-02T06:48:21.320Z,51.87
2022-08-02T06:53:27.230Z,51.60
2022-08-02T06:58:33.204Z,52.17
2022-08-02T07:03:40.821Z,51.80
2022-08-02T07:09:04.917Z,51.80
2022-08-02T07:13:53.782Z,51.90
2022-08-02T07:19:00.576Z,51.30
2022-08-02T07:24:06.673Z,52.20
2022-08-02T07:34:16.641Z,52.08
2022-08-02T07:39:21.975Z,52.17
2022-08-02T07:44:29.137Z,52.48
2022-08-02T07:49:35.315Z,52.48
2022-08-02T07:54:41.371Z,53.00
2022-08-02T07:59:48.094Z,53.07
2022-08-02T08:04:54.283Z,53.27
2022-08-02T08:10:01.482Z,53.40
2022-08-02T08:15:07.228Z,53.50
2022-08-02T08:20:15.896Z,53.83
2022-08-02T08:25:22.202Z,54.25
2022-08-02T08:30:29.025Z,53.07
2022-08-02T08:35:35.227Z,53.47
2022-08-02T08:40:42.182Z,54.60
2022-08-02T08:45:55.985Z,53.80
2022-08-02T08:50:58.349Z,54.03
2022-08-02T08:56:03.810Z,53.53
2022-08-02T09:01:09.374Z,54.75
2022-08-02T09:06:15.083Z,54.47
2022-08-02T09:11:26.437Z,53.90
2022-08-02T09:16:34.439Z,53.83
2022-08-02T09:21:40.145Z,55.17
2022-08-02T09:31:50.865Z,53.83
2022-08-02T09:36:56.331Z,55.33
2022-08-02T09:52:14.440Z,53.15
2022-08-02T09:57:28.839Z,54.07
2022-08-02T10:02:33.782Z,52.90
2022-08-02T10:07:39.495Z,53.13
2022-08-02T10:12:44.881Z,53.20
2022-08-02T10:17:50.579Z,52.67
2022-08-02T10:22:58.516Z,52.73
2022-08-02T10:28:05.763Z,52.60
2022-08-02T10:33:13.114Z,52.10
2022-08-02T10:38:19.920Z,53.17
2022-08-02T10:43:45.450Z,52.20
2022-08-02T10:54:22.289Z,52.60
2022-08-02T10:59:38.667Z,53.07
2022-08-02T11:04:47.042Z,52.63
2022-08-02T11:09:53.035Z,52.75
2022-08-02T11:15:07.835Z,52.87
2022-08-02T11:20:16.624Z,52.40
2022-08-02T11:25:32.097Z,52.15
2022-08-02T11:30:35.808Z,52.15
2022-08-02T11:35:42.534Z,52.23
2022-08-02T11:40:49.889Z,52.30
2022-08-02T11:45:57.232Z,51.87
2022-08-02T11:51:14.760Z,52.03
2022-08-02T11:56:29.476Z,52.63
2022-08-02T12:01:45.425Z,52.15
2022-08-02T12:06:44.919Z,52.88
2022-08-02T12:11:52.305Z,51.77
2022-08-02T12:17:15.130Z,52.03
2022-08-02T12:22:27.465Z,52.40
2022-08-02T12:27:35.870Z,52.73
2022-08-02T12:32:42.293Z,52.33
2022-08-02T12:37:50.069Z,52.08
2022-08-02T12:43:05.062Z,52.15
2022-08-02T12:48:11.497Z,52.57
2022-08-02T12:53:19.553Z,52.60
2022-08-02T12:58:25.578Z,52.50
2022-08-02T13:04:11.902Z,52.98
2022-08-02T13:08:38.974Z,52.23
2022-08-02T13:13:44.569Z,52.37
2022-08-02T13:18:49.757Z,52.83
2022-08-02T13:23:55.482Z,52.48
2022-08-02T13:29:01.810Z,51.97
2022-08-02T13:34:09.243Z,52.40
2022-08-02T13:39:14.647Z,52.90
2022-08-02T13:44:19.973Z,52.60
2022-08-02T13:49:49.657Z,52.78
2022-08-02T13:54:31.850Z,53.17
2022-08-02T13:59:56.871Z,52.83
2022-08-02T14:04:44.906Z,52.50
2022-08-02T14:14:53.910Z,53.10
2022-08-02T14:19:59.218Z,52.47
2022-08-02T14:25:08.893Z,52.75
2022-08-02T14:30:11.729Z,52.80
2022-08-02T14:35:16.957Z,52.50
2022-08-02T14:40:30.749Z,53.28
2022-08-02T14:45:40.366Z,52.93
2022-08-02T14:50:39.507Z,53.70
2022-08-02T14:55:45.009Z,53.67
2022-08-02T15:00:50.309Z,53.13
2022-08-02T15:05:57.600Z,52.87
2022-08-02T15:11:03.069Z,52.93
2022-08-02T15:21:40.314Z,53.20
2022-08-02T15:26:21.200Z,53.55
2022-08-02T15:31:33.313Z,52.88
2022-08-02T15:36:33.281Z,52.93
2022-08-02T15:41:38.660Z,53.05
2022-08-02T15:46:44.346Z,52.90
2022-08-02T15:51:51.118Z,52.87
2022-08-02T15:56:57.098Z,52.70
2022-08-02T16:02:05.186Z,52.90
2022-08-02T16:07:10.389Z,52.73
2022-08-02T16:12:16.465Z,52.70
2022-08-02T16:17:53.797Z,53.27
2022-08-02T16:22:29.961Z,52.55
2022-08-02T16:27:34.855Z,52.75
2022-08-02T16:32:42.143Z,52.80
2022-08-02T16:37:51.605Z,52.53
2022-08-02T16:42:55.992Z,52.40
2022-08-02T16:48:05.512Z,53.15
2022-08-02T16:53:08.069Z,52.23
2022-08-02T16:58:14.536Z,52.40
2022-08-02T17:03:20.926Z,52.35
2022-08-02T17:08:31.718Z,52.40
2022-08-02T17:13:37.725Z,52.13
2022-08-02T17:18:43.031Z,52.63
2022-08-02T17:24:07.719Z,52.17
2022-08-02T17:29:15.430Z,51.93
2022-08-02T17:34:02.489Z,52.03
2022-08-02T17:39:09.091Z,52.17
2022-08-02T17:44:14.970Z,51.93
2022-08-02T17:49:23.681Z,51.85
2022-08-02T17:54:29.683Z,51.77
2022-08-02T17:59:41.637Z,51.90
2022-08-02T18:04:43.618Z,52.13
2022-08-02T18:09:50.729Z,52.30
2022-08-02T18:14:57.937Z,52.63
2022-08-02T18:20:10.116Z,51.97
2022-08-02T18:25:36.183Z,51.37
2022-08-02T18:30:26.370Z,51.97
2022-08-02T18:35:26.218Z,51.87
2022-08-02T18:40:32.796Z,51.40
2022-08-02T18:46:05.645Z,51.60
2022-08-02T18:50:47.007Z,51.63
2022-08-02T18:55:59.622Z,51.23
2022-08-02T19:01:00.429Z,51.73
2022-08-02T19:06:07.596Z,51.02
2022-08-02T19:11:13.047Z,51.30
2022-08-02T19:16:19.740Z,51.10
2022-08-02T19:22:26.521Z,51.07
2022-08-02T19:26:32.143Z,50.63
2022-08-02T19:32:00.244Z,50.63
2022-08-02T19:36:46.815Z,50.43
2022-08-02T19:41:53.056Z,50.73
2022-08-02T19:46:59.879Z,50.73
2022-08-02T19:52:20.582Z,50.67
2022-08-02T19:57:13.813Z,50.50
2022-08-02T20:02:20.667Z,50.05
2022-08-02T20:07:55.275Z,50.37
2022-08-02T20:12:37.308Z,50.20
2022-08-02T20:17:41.217Z,50.73
2022-08-02T20:23:33.641Z,50.73
2022-08-02T20:28:15.028Z,51.00
2022-08-02T20:33:22.462Z,50.33
2022-08-02T20:38:29.906Z,50.63
2022-08-02T20:43:35.919Z,50.90
2022-08-02T20:48:42.129Z,49.93
2022-08-02T20:53:55.232Z,50.60
2022-08-02T20:59:03.703Z,50.43
2022-08-02T21:04:05.164Z,51.27
2022-08-02T21:09:10.594Z,50.70
2022-08-02T21:14:16.743Z,50.43
2022-08-02T21:19:23.556Z,50.58
2022-08-02T21:24:28.931Z,50.12
2022-08-02T21:29:36.414Z,50.25
2022-08-02T21:34:43.358Z,50.57
2022-08-02T21:39:50.762Z,50.98
2022-08-02T21:44:57.972Z,50.53
2022-08-02T21:50:13.439Z,49.97
2022-08-02T21:55:15.041Z,50.23
2022-08-02T22:00:28.453Z,50.00
2022-08-02T22:05:25.592Z,50.58
2022-08-02T22:10:32.374Z,50.17
2022-08-02T22:15:41.090Z,50.70
2022-08-02T22:20:44.956Z,49.60
2022-08-02T22:25:51.629Z,50.47
2022-08-02T22:30:58.142Z,50.00
2022-08-02T22:36:04.687Z,50.20
2022-08-02T22:41:10.214Z,50.48
2022-08-02T22:46:16.700Z,50.10
2022-08-02T22:51:22.161Z,49.50
2022-08-02T22:56:27.410Z,50.40
2022-08-02T23:01:33.482Z,49.98
2022-08-02T23:06:38.702Z,50.40
2022-08-02T23:11:44.161Z,49.98
2022-08-02T23:17:07.518Z,50.50
2022-08-02T23:22:13.846Z,50.73
2022-08-02T23:27:20.361Z,50.38
2022-08-02T23:32:26.356Z,50.37
2022-08-02T23:37:57.837Z,50.30
2022-08-02T23:42:38.071Z,49.65
2022-08-02T23:47:43.264Z,49.77
2022-08-02T23:52:48.617Z,49.43
2022-08-02T23:57:54.075Z,50.27
